Etusivu
METAR-TAF:

METAR-TAF

Lentoasemat :

Kelso, Washington, Yhdysvallat

Leveyspiiri: 46-07N, Pituuspiiri: 122-54W, korkeus merenpinnasta: 5 m

Tämänhetkinen sää

Tämä raportti tehtiin 24 minuuttia sitten, kello 16.56 UTC
Tuuli 4 kn koillisesta
Lämpötila 9°C
Kosteus 93%
Ilmanpaine 1021 hPa
Näkyvyys: 16.1 km
Pilvistä 800 ft:n korkeudessa

METAR: KKLS 131656Z AUTO 05004KT 10SM OVC008 09/08 A3014 RMK AO2 SLP210 T00940078

Aika: 09:20 (17:20 UTC)


TAF: puuttuu

Säähavainnot ja -ennusteet yli 4000 lentoasemalta (METAR- ja TAF-raportit).

Käytössä olevat sääasemat on merkitty karttaan keltaisilla ja punaisilla pisteillä.

Aseta hiiri pisteen päälle nähdäksesi sääaseman nimen.

Klikkaa sitten nähdäksesi säähavainnot ja -ennusteet.

Kartan vaihtaminen: klikkaa mustalla rastilla varustettuja vihreitä pisteitä, niin voit zoomata sisään; viivalla varustettua vihreää pistettä, niin voit zoomata ulos tai vihreitä nuolia, niin pääset viereisille kartoille.


METAR-TAF: